createdAt,value
2019-05-28T00:00:20.775Z,2.50
2019-05-28T00:02:52.429Z,4.63
2019-05-28T00:05:24.219Z,4.57
2019-05-28T00:07:55.973Z,2.37
2019-05-28T00:10:27.672Z,2.17
2019-05-28T00:12:59.367Z,3.20
2019-05-28T00:15:31.046Z,2.50
2019-05-28T00:18:04.576Z,3.90
2019-05-28T00:20:36.256Z,3.03
2019-05-28T00:23:08.029Z,3.97
2019-05-28T00:25:39.737Z,3.87
2019-05-28T00:28:11.536Z,4.47
2019-05-28T00:30:43.474Z,2.37
2019-05-28T00:33:15.166Z,3.67
2019-05-28T00:35:46.968Z,4.03
2019-05-28T00:38:18.608Z,3.40
2019-05-28T00:40:50.557Z,3.47
2019-05-28T00:43:22.293Z,3.30
2019-05-28T00:45:53.962Z,2.80
2019-05-28T00:48:25.672Z,3.93
2019-05-28T00:50:57.352Z,2.00
2019-05-28T00:53:29.002Z,3.03
2019-05-28T00:56:01.691Z,3.67
2019-05-28T00:58:35.771Z,2.73
2019-05-28T01:01:08.931Z,2.33
2019-05-28T01:03:40.561Z,4.57
2019-05-28T01:06:12.251Z,4.57
2019-05-28T01:08:43.922Z,3.90
2019-05-28T01:11:15.634Z,2.00
2019-05-28T01:13:47.329Z,2.17
2019-05-28T01:16:19.132Z,2.57
2019-05-28T01:18:50.777Z,3.80
2019-05-28T01:21:22.558Z,4.57
2019-05-28T01:23:54.185Z,3.20
2019-05-28T01:26:25.851Z,3.93
2019-05-28T01:28:57.532Z,2.00
2019-05-28T01:31:29.247Z,3.57
2019-05-28T01:34:00.893Z,3.37
2019-05-28T01:36:32.561Z,5.33
2019-05-28T01:39:04.856Z,3.43
2019-05-28T01:41:36.800Z,5.03
2019-05-28T01:44:08.466Z,3.97
2019-05-28T01:46:40.167Z,6.30
2019-05-28T01:49:11.912Z,3.17
2019-05-28T01:51:43.618Z,3.17
2019-05-28T01:54:15.314Z,4.13
2019-05-28T01:56:47.111Z,3.07
2019-05-28T01:59:21.821Z,3.00
2019-05-28T02:01:53.575Z,4.07
2019-05-28T02:04:25.363Z,4.00
2019-05-28T02:06:56.997Z,3.70
2019-05-28T02:09:28.686Z,3.17
2019-05-28T02:12:00.405Z,3.50
2019-05-28T02:14:34.557Z,5.13
2019-05-28T02:17:06.256Z,5.80
2019-05-28T02:19:37.982Z,3.37
2019-05-28T02:22:09.716Z,3.10
2019-05-28T02:24:41.485Z,3.07
2019-05-28T02:27:13.166Z,4.73
2019-05-28T02:29:44.866Z,3.47
2019-05-28T02:32:16.529Z,2.50
2019-05-28T02:34:48.200Z,3.47
2019-05-28T02:37:21.115Z,5.33
2019-05-28T02:39:54.226Z,3.23
2019-05-28T02:42:26.079Z,5.13
2019-05-28T02:44:57.710Z,2.07
2019-05-28T02:47:29.389Z,3.17
2019-05-28T02:50:01.058Z,3.33
2019-05-28T02:52:32.903Z,3.20
2019-05-28T02:55:05.463Z,3.57
2019-05-28T02:57:39.880Z,2.97
2019-05-28T03:00:13.343Z,3.23
2019-05-28T03:02:48.548Z,2.70
2019-05-28T03:05:20.304Z,2.40
2019-05-28T03:07:55.742Z,3.37
2019-05-28T03:11:01.816Z,3.57
2019-05-28T03:13:10.829Z,3.10
2019-05-28T03:15:46.907Z,3.83
2019-05-28T03:18:21.993Z,3.77
2019-05-28T03:20:56.700Z,5.43
2019-05-28T03:23:32.648Z,6.27
2019-05-28T03:26:04.893Z,3.70
2019-05-28T03:28:36.824Z,3.33
2019-05-28T03:31:08.537Z,4.87
2019-05-28T03:33:40.190Z,4.07
2019-05-28T03:36:14.587Z,4.50
2019-05-28T03:38:47.594Z,3.73
2019-05-28T03:41:19.387Z,3.47
2019-05-28T03:43:51.105Z,3.57
2019-05-28T03:46:22.896Z,3.90
2019-05-28T03:48:54.608Z,4.50
2019-05-28T03:51:26.293Z,3.77
2019-05-28T03:53:58.075Z,3.50
2019-05-28T03:56:31.617Z,2.83
2019-05-28T03:59:05.897Z,4.90
2019-05-28T04:01:38.080Z,3.50
2019-05-28T04:04:10.919Z,5.10
2019-05-28T04:06:42.661Z,7.17
2019-05-28T04:09:14.299Z,3.73
2019-05-28T04:11:45.968Z,5.33
2019-05-28T04:14:18.737Z,3.93
2019-05-28T04:16:50.393Z,3.83
2019-05-28T04:19:22.067Z,5.80
2019-05-28T04:21:53.727Z,7.03
2019-05-28T04:24:26.546Z,3.77
2019-05-28T04:26:58.239Z,5.40
2019-05-28T04:29:29.922Z,3.03
2019-05-28T04:32:01.633Z,5.87
2019-05-28T04:34:33.324Z,3.37
2019-05-28T04:37:04.954Z,4.90
2019-05-28T04:39:36.678Z,4.40
2019-05-28T04:42:08.348Z,18.83
2019-05-28T04:44:40.078Z,7.50
2019-05-28T04:47:11.835Z,4.00
2019-05-28T04:49:47.141Z,2.97
2019-05-28T04:52:20.558Z,5.87
2019-05-28T04:54:52.271Z,3.37
2019-05-28T04:57:23.958Z,3.27
2019-05-28T04:59:55.645Z,4.40
2019-05-28T05:02:27.450Z,3.10
2019-05-28T05:04:59.191Z,3.27
2019-05-28T05:07:30.905Z,2.80
2019-05-28T05:10:02.640Z,4.03
2019-05-28T05:12:34.366Z,3.93
2019-05-28T05:15:07.015Z,5.83
2019-05-28T05:17:38.661Z,3.93
2019-05-28T05:20:11.458Z,3.73
2019-05-28T05:22:43.177Z,6.17
2019-05-28T05:25:15.273Z,5.47
2019-05-28T05:27:46.982Z,3.70
2019-05-28T05:30:18.737Z,3.23
2019-05-28T05:32:50.471Z,5.20
2019-05-28T05:35:22.360Z,2.80
2019-05-28T05:38:02.794Z,7.73
2019-05-28T05:40:37.241Z,3.20
2019-05-28T05:43:08.918Z,4.57
2019-05-28T05:45:40.620Z,4.37
2019-05-28T05:48:12.306Z,4.43
2019-05-28T05:50:45.331Z,3.40
2019-05-28T05:53:17.310Z,3.93
2019-05-28T05:55:50.787Z,2.63
2019-05-28T05:58:24.298Z,4.00
2019-05-28T06:00:56.041Z,3.70
2019-05-28T06:03:39.862Z,4.77
2019-05-28T06:06:02.628Z,5.17
2019-05-28T06:08:37.123Z,6.07
2019-05-28T06:11:07.736Z,4.27
2019-05-28T06:13:39.386Z,3.17
2019-05-28T06:16:11.075Z,4.10
2019-05-28T06:18:42.807Z,4.80
2019-05-28T06:21:18.320Z,4.27
2019-05-28T06:23:48.163Z,3.60
2019-05-28T06:26:20.012Z,4.27
2019-05-28T06:28:51.821Z,5.13
2019-05-28T06:31:23.556Z,14.97
2019-05-28T06:33:57.268Z,6.07
2019-05-28T06:36:28.780Z,4.70
2019-05-28T06:39:01.604Z,6.37
2019-05-28T06:41:33.272Z,7.27
2019-05-28T06:44:05.340Z,3.53
2019-05-28T06:46:37.027Z,3.83
2019-05-28T06:49:10.066Z,3.93
2019-05-28T06:51:41.768Z,4.53
2019-05-28T06:54:13.522Z,4.47
2019-05-28T06:56:46.891Z,6.83
2019-05-28T06:59:19.865Z,5.60
2019-05-28T07:01:51.595Z,3.97
2019-05-28T07:04:32.349Z,5.70
2019-05-28T07:06:59.174Z,7.63
2019-05-28T07:09:30.114Z,6.17
2019-05-28T07:12:05.815Z,7.30
2019-05-28T07:14:38.624Z,6.53
2019-05-28T07:17:10.334Z,7.20
2019-05-28T07:19:42.026Z,8.57
2019-05-28T07:22:13.699Z,6.90
2019-05-28T07:24:45.475Z,6.17
2019-05-28T07:27:17.241Z,5.37
2019-05-28T07:29:48.918Z,7.77
2019-05-28T07:32:20.674Z,8.40
2019-05-28T07:34:52.358Z,7.73
2019-05-28T07:37:24.115Z,7.83
2019-05-28T07:39:55.787Z,9.23
2019-05-28T07:42:32.558Z,6.70
2019-05-28T07:45:00.836Z,7.97
2019-05-28T07:47:32.572Z,8.73
2019-05-28T07:50:04.838Z,6.77
2019-05-28T07:52:36.564Z,9.27
2019-05-28T07:55:08.628Z,8.20
2019-05-28T07:57:40.374Z,7.80
2019-05-28T08:00:13.259Z,7.57
2019-05-28T08:02:44.949Z,8.97
2019-05-28T08:05:17.515Z,6.57
2019-05-28T08:07:49.274Z,7.43
2019-05-28T08:10:21.245Z,11.43
2019-05-28T08:12:53.091Z,8.83
2019-05-28T08:15:25.052Z,7.60
2019-05-28T08:17:56.724Z,8.33
2019-05-28T08:20:28.508Z,7.77
2019-05-28T08:23:00.289Z,9.63
2019-05-28T08:25:46.352Z,10.37
2019-05-28T08:28:19.162Z,9.23
2019-05-28T08:30:38.855Z,9.50
2019-05-28T08:33:11.874Z,8.20
2019-05-28T08:35:43.560Z,6.63
2019-05-28T08:38:15.396Z,9.13
2019-05-28T09:38:32.060Z,8.70
2019-05-28T09:41:06.130Z,8.03
2019-05-28T09:43:39.396Z,5.53
2019-05-28T09:46:14.022Z,8.10
2019-05-28T09:48:45.894Z,5.07
2019-05-28T09:51:17.595Z,4.33
2019-05-28T09:54:46.373Z,4.53
2019-05-28T09:57:18.079Z,5.73
2019-05-28T09:59:49.887Z,7.77
2019-05-28T10:02:26.470Z,6.33
2019-05-28T10:04:58.179Z,7.13
2019-05-28T10:07:37.291Z,8.20
2019-05-28T10:10:12.257Z,5.10
2019-05-28T10:12:48.893Z,8.70
2019-05-28T10:15:25.167Z,4.13
2019-05-28T10:18:06.341Z,4.10
2019-05-28T10:20:39.871Z,3.63
2019-05-28T10:23:15.925Z,3.63
2019-05-28T10:25:51.778Z,4.77
2019-05-28T10:28:25.135Z,5.80
2019-05-28T10:31:01.329Z,5.00
2019-05-28T10:33:38.787Z,5.37
2019-05-28T10:36:34.480Z,4.60
2019-05-28T10:38:54.576Z,4.13
2019-05-28T10:41:32.846Z,4.30
2019-05-28T10:44:06.927Z,4.83
2019-05-28T10:46:44.194Z,4.07
2019-05-28T10:49:21.333Z,3.37
2019-05-28T11:00:14.366Z,3.17
2019-05-28T11:02:46.118Z,3.87
2019-05-28T11:05:18.051Z,5.83
2019-05-28T11:07:49.721Z,3.27
2019-05-28T11:10:24.408Z,4.20
2019-05-28T11:12:56.608Z,4.67
2019-05-28T11:15:28.739Z,5.20
2019-05-28T11:18:00.622Z,4.27
2019-05-28T11:20:32.723Z,7.47
2019-05-28T11:23:04.551Z,4.77
2019-05-28T11:25:36.273Z,4.73
2019-05-28T11:28:07.986Z,5.00
2019-05-28T11:30:39.770Z,5.57
2019-05-28T11:33:17.261Z,5.53
2019-05-28T11:35:46.381Z,5.40
2019-05-28T11:38:18.280Z,5.87
2019-05-28T11:40:50.099Z,5.87
2019-05-28T11:43:21.828Z,7.40
2019-05-28T11:45:53.590Z,8.37
2019-05-28T11:48:25.257Z,8.57
2019-05-28T11:50:57.124Z,7.87
2019-05-28T11:53:28.836Z,7.23
2019-05-28T11:56:00.546Z,5.57
2019-05-28T11:58:32.291Z,6.30
2019-05-28T12:01:04.392Z,7.23
2019-05-28T12:03:36.204Z,3.97
2019-05-28T12:06:08.093Z,4.93
2019-05-28T12:08:39.804Z,5.00
2019-05-28T12:11:11.793Z,4.33
2019-05-28T12:13:43.515Z,6.20
2019-05-28T12:16:15.323Z,4.23
2019-05-28T12:18:47.009Z,5.37
2019-05-28T12:21:20.675Z,3.50
2019-05-28T12:23:52.486Z,4.77
2019-05-28T12:26:24.312Z,4.03
2019-05-28T12:28:56.095Z,4.50
2019-05-28T12:31:27.877Z,4.30
2019-05-28T12:33:59.529Z,3.60
2019-05-28T12:36:32.471Z,2.93
2019-05-28T12:39:05.669Z,2.80
2019-05-28T12:41:37.406Z,2.27
2019-05-28T12:44:09.113Z,1.30
2019-05-28T12:46:41.066Z,3.57
2019-05-28T12:49:12.872Z,11.30
2019-05-28T12:51:46.105Z,3.77
2019-05-28T12:54:20.112Z,2.83
2019-05-28T12:56:51.932Z,2.50
2019-05-28T13:01:43.887Z,7.00
2019-05-28T13:04:16.260Z,3.20
2019-05-28T13:06:49.041Z,2.93
2019-05-28T13:09:20.866Z,2.50
2019-05-28T13:11:53.038Z,4.47
2019-05-28T13:14:24.767Z,3.63
2019-05-28T13:16:57.617Z,2.98
2019-05-28T13:19:29.669Z,3.37
2019-05-28T13:22:01.781Z,3.57
2019-05-28T13:24:33.952Z,4.00
2019-05-28T13:27:17.582Z,1.97
2019-05-28T13:29:44.004Z,2.87
2019-05-28T13:32:17.440Z,2.80
2019-05-28T13:34:49.569Z,3.10
2019-05-28T13:37:23.266Z,2.43
2019-05-28T13:39:56.792Z,2.93
2019-05-28T13:42:29.016Z,3.07
2019-05-28T13:45:03.120Z,2.87
2019-05-28T13:47:36.574Z,2.93
2019-05-28T13:50:09.616Z,3.63
2019-05-28T13:52:43.311Z,3.67
2019-05-28T13:55:17.489Z,3.47
2019-05-28T13:57:51.354Z,2.93
2019-05-28T14:00:25.027Z,3.43
2019-05-28T14:02:57.141Z,2.80
2019-05-28T14:05:30.399Z,4.17
2019-05-28T14:08:02.747Z,4.10
2019-05-28T14:10:36.853Z,3.17
2019-05-28T14:13:10.971Z,3.13
2019-05-28T14:15:43.169Z,2.93
2019-05-28T14:18:15.296Z,3.37
2019-05-28T14:20:48.674Z,3.77
2019-05-28T14:23:20.796Z,4.27
2019-05-28T14:25:52.928Z,4.77
2019-05-28T14:28:24.925Z,3.93
2019-05-28T14:31:00.323Z,3.47
2019-05-28T14:33:36.293Z,3.70
2019-05-28T14:36:12.414Z,2.97
2019-05-28T14:39:01.014Z,3.70
2019-05-28T14:41:20.529Z,2.73
2019-05-28T14:43:53.796Z,4.00
2019-05-28T14:46:26.618Z,2.90
2019-05-28T14:49:01.932Z,3.50
2019-05-28T14:51:40.970Z,2.70
2019-05-28T14:54:17.691Z,3.20
2019-05-28T14:56:49.442Z,2.53
2019-05-28T14:59:21.029Z,2.53
2019-05-28T15:01:52.919Z,2.53
2019-05-28T15:04:24.970Z,2.63
2019-05-28T15:07:00.161Z,2.63
2019-05-28T15:09:32.171Z,2.60
2019-05-28T15:12:05.767Z,2.50
2019-05-28T15:14:42.521Z,2.73
2019-05-28T15:17:14.468Z,2.83
2019-05-28T15:19:48.596Z,3.50
2019-05-28T15:22:20.295Z,2.10
2019-05-28T15:24:52.125Z,2.50
2019-05-28T15:27:23.958Z,1.77
2019-05-28T15:29:56.062Z,1.73
2019-05-28T15:32:27.810Z,2.23
2019-05-28T15:34:59.695Z,2.00
2019-05-28T15:37:32.399Z,1.67
2019-05-28T15:40:04.722Z,2.40
2019-05-28T15:42:36.512Z,2.03
2019-05-28T15:45:09.402Z,1.93
2019-05-28T15:47:44.727Z,2.60
2019-05-28T15:50:17.320Z,4.50
2019-05-28T15:52:49.199Z,2.70
2019-05-28T15:55:21.077Z,3.30
2019-05-28T15:57:52.796Z,3.70
2019-05-28T16:00:25.318Z,4.97
2019-05-28T16:02:57.205Z,2.93
2019-05-28T16:05:28.993Z,2.40
2019-05-28T16:08:00.809Z,2.07
2019-05-28T16:10:32.625Z,2.43
2019-05-28T16:13:04.768Z,1.50
2019-05-28T16:15:36.631Z,1.73
2019-05-28T16:18:08.509Z,3.43
2019-05-28T16:20:40.321Z,2.27
2019-05-28T16:23:12.040Z,3.00
2019-05-28T16:25:45.044Z,2.43
2019-05-28T16:28:17.036Z,2.07
2019-05-28T16:30:49.014Z,2.10
2019-05-28T16:33:22.572Z,2.60
2019-05-28T16:35:54.316Z,4.23
2019-05-28T16:38:26.337Z,2.70
2019-05-28T16:40:58.042Z,3.07
2019-05-28T16:43:29.848Z,2.70
2019-05-28T16:46:01.667Z,2.47
2019-05-28T16:48:33.596Z,2.50
2019-05-28T16:51:05.522Z,2.33
2019-05-28T16:53:37.414Z,2.47
2019-05-28T16:56:09.238Z,4.03
2019-05-28T16:58:41.003Z,2.57
2019-05-28T17:01:22.531Z,3.37
2019-05-28T17:03:48.263Z,3.77
2019-05-28T17:06:24.180Z,2.60
2019-05-28T17:08:57.749Z,3.07
2019-05-28T17:11:31.549Z,3.30
2019-05-28T17:17:02.984Z,4.30
2019-05-28T17:19:33.021Z,3.13
2019-05-28T17:22:20.400Z,2.77
2019-05-28T17:24:54.850Z,3.37
2019-05-28T17:27:37.380Z,2.43
2019-05-28T17:30:23.715Z,2.70
2019-05-28T17:32:54.993Z,3.40
2019-05-28T17:35:37.030Z,2.30
2019-05-28T17:38:12.146Z,2.70
2019-05-28T17:40:48.828Z,2.57
2019-05-28T17:43:22.440Z,4.83
2019-05-28T17:45:56.805Z,3.70
2019-05-28T17:48:28.931Z,3.47
2019-05-28T17:51:01.104Z,2.70
2019-05-28T17:53:34.680Z,2.53
2019-05-28T17:56:09.716Z,4.00
2019-05-28T17:58:43.167Z,3.33
2019-05-28T18:01:15.201Z,2.93
2019-05-28T18:03:48.592Z,2.80
2019-05-28T18:06:26.317Z,4.17
2019-05-28T18:09:01.387Z,3.43
2019-05-28T18:11:42.539Z,4.53
2019-05-28T18:14:17.985Z,2.97
2019-05-28T18:16:49.529Z,4.53
2019-05-28T18:19:21.522Z,3.87
2019-05-28T18:21:55.500Z,4.43
2019-05-28T18:24:31.764Z,5.00
2019-05-28T18:27:08.089Z,4.10
2019-05-28T18:29:41.887Z,3.90
2019-05-28T18:32:14.364Z,2.63
2019-05-28T18:34:47.983Z,4.13
2019-05-28T18:37:20.090Z,2.50
2019-05-28T18:39:53.447Z,2.20
2019-05-28T18:42:26.882Z,2.77
2019-05-28T18:44:58.751Z,3.20
2019-05-28T18:47:30.859Z,3.47
2019-05-28T18:50:05.897Z,2.50
2019-05-28T18:52:39.413Z,5.00
2019-05-28T18:55:16.520Z,3.03
2019-05-28T18:57:50.986Z,3.13
2019-05-28T19:00:30.777Z,2.93
2019-05-28T19:03:07.185Z,2.90
2019-05-28T19:05:46.743Z,2.80
2019-05-28T19:08:20.180Z,3.03
2019-05-28T19:10:54.213Z,2.23
2019-05-28T19:13:28.571Z,2.77
2019-05-28T19:16:03.605Z,4.67
2019-05-28T19:18:36.994Z,3.83
2019-05-28T19:21:10.495Z,2.80
2019-05-28T19:23:42.300Z,2.97
2019-05-28T19:26:14.201Z,4.40
2019-05-28T19:28:46.112Z,2.97
2019-05-28T19:31:17.984Z,3.07
2019-05-28T19:33:49.875Z,2.90
2019-05-28T19:36:21.924Z,3.73
2019-05-28T19:39:06.624Z,2.10
2019-05-28T19:41:53.726Z,2.80
2019-05-28T19:44:15.040Z,3.77
2019-05-28T19:46:46.985Z,3.10
2019-05-28T19:49:18.735Z,3.67
2019-05-28T19:51:50.638Z,4.00
2019-05-28T19:54:22.531Z,2.37
2019-05-28T19:56:54.306Z,2.43
2019-05-28T19:59:26.078Z,3.53
2019-05-28T20:01:57.797Z,3.33
2019-05-28T20:04:29.693Z,4.57
2019-05-28T20:07:01.968Z,2.70
2019-05-28T20:09:35.455Z,2.23
2019-05-28T20:12:12.632Z,2.23
2019-05-28T20:14:42.734Z,3.00
2019-05-28T20:17:14.587Z,2.97
2019-05-28T20:19:47.417Z,3.27
2019-05-28T20:22:19.261Z,4.47
2019-05-28T20:24:52.850Z,2.70
2019-05-28T20:27:24.595Z,3.67
2019-05-28T20:29:56.461Z,2.83
2019-05-28T20:32:28.241Z,3.10
2019-05-28T20:35:01.348Z,4.00
2019-05-28T20:37:33.226Z,4.43
2019-05-28T20:40:07.943Z,3.00
2019-05-28T20:42:39.848Z,3.13
2019-05-28T20:45:12.540Z,2.67
2019-05-28T20:47:45.450Z,3.07
2019-05-28T20:50:17.660Z,3.43
2019-05-28T20:52:49.360Z,2.43
2019-05-28T20:55:21.595Z,2.60
2019-05-28T20:57:55.406Z,2.93
2019-05-28T21:00:27.272Z,3.37
2019-05-28T21:02:59.097Z,2.87
2019-05-28T21:05:31.027Z,3.40
2019-05-28T21:08:02.914Z,3.03
2019-05-28T21:10:34.722Z,2.80
2019-05-28T21:13:06.571Z,3.17
2019-05-28T21:15:39.725Z,3.17
2019-05-28T21:18:11.451Z,2.80
2019-05-28T21:20:43.313Z,3.00
2019-05-28T21:23:17.792Z,2.93
2019-05-28T21:25:49.965Z,2.70
2019-05-28T21:28:21.830Z,2.60
2019-05-28T21:30:54.670Z,2.43
2019-05-28T21:33:26.494Z,2.23
2019-05-28T21:35:59.506Z,2.63
2019-05-28T21:38:31.512Z,2.10
2019-05-28T21:41:03.254Z,3.00
2019-05-28T21:43:35.857Z,3.53
2019-05-28T21:46:09.325Z,1.50
2019-05-28T21:48:41.144Z,2.00
2019-05-28T21:51:12.982Z,1.60
2019-05-28T21:53:46.242Z,2.07
2019-05-28T21:56:18.016Z,1.27
2019-05-28T21:58:49.895Z,1.53
2019-05-28T22:01:26.360Z,1.17
2019-05-28T22:03:59.380Z,2.80
2019-05-28T22:06:31.219Z,1.90
2019-05-28T22:09:03.878Z,1.90
2019-05-28T22:11:35.889Z,3.13
2019-05-28T22:14:08.613Z,2.33
2019-05-28T22:16:40.502Z,2.97
2019-05-28T22:19:12.376Z,4.17
2019-05-28T22:21:44.205Z,2.17
2019-05-28T22:24:16.053Z,1.03
2019-05-28T22:26:47.754Z,1.50
2019-05-28T22:29:19.629Z,1.23
2019-05-28T22:31:58.710Z,2.07
2019-05-28T22:34:34.539Z,2.33
2019-05-28T22:37:06.308Z,1.00
2019-05-28T22:39:37.999Z,1.67
2019-05-28T22:42:09.730Z,1.10
2019-05-28T22:44:41.570Z,2.43
2019-05-28T22:47:13.217Z,1.70
2019-05-28T22:49:46.143Z,1.20
2019-05-28T22:52:20.348Z,1.67
2019-05-28T22:54:52.149Z,2.50
2019-05-28T22:57:23.879Z,2.70
2019-05-28T22:59:55.569Z,2.00
2019-05-28T23:02:27.275Z,1.37
2019-05-28T23:04:58.971Z,2.57
2019-05-28T23:07:31.776Z,1.20
2019-05-28T23:10:03.666Z,1.73
2019-05-28T23:12:35.573Z,2.47
2019-05-28T23:15:08.341Z,1.10
2019-05-28T23:17:40.101Z,2.30
2019-05-28T23:20:13.597Z,1.60
2019-05-28T23:22:45.401Z,1.00
2019-05-28T23:25:17.332Z,1.90
2019-05-28T23:27:49.234Z,2.50
2019-05-28T23:30:25.306Z,1.27
2019-05-28T23:32:56.287Z,1.70
2019-05-28T23:35:27.914Z,1.60
2019-05-28T23:37:59.635Z,1.37
2019-05-28T23:40:31.357Z,1.73
2019-05-28T23:43:03.320Z,2.07
2019-05-28T23:45:36.138Z,4.27
2019-05-28T23:48:13.396Z,2.40
2019-05-28T23:50:41.240Z,1.27
2019-05-28T23:53:13.794Z,1.13
2019-05-28T23:55:45.598Z,2.13
2019-05-28T23:58:18.374Z,1.87
